Pagina principale
METAR-TAF:

METAR-TAF

Aeroporti :

Amman, Giordania

latitudine: 31-59N, longitudine: 035-59E, altezza: 767 m

Osservazione

Il bollettino è stato emesso 58 minuti fa, alle 12:00 UTC
Vento 10 kt da nord
Temperature 31°C
Umidità 33%
Pressione 1011 hPa
Visibilità: 5000 m
foschia

METAR: OJAM 151200Z 35010KT 5000 HZ NSC 31/13 Q1011 NOSIG

Ora: 15:58 (12:58 UTC)

Previsione

Il bollettino è stato emesso 3 ore e 6 minuti fa, alle 09:52 UTC
Previsione valida dal 15 alle 12 UTC al 16 alle 18 UTC
Vento 12 kt da ovest/nord-ovest
Visibilità: 5000 m
foschia
Temporaneamente
dal 15 alle 12 UTC al 15 alle 18 UTC
Vento 16 kt da ovest/nord-ovest

TAF: OJAM 150952Z 1512/1618 29012KT 5000 HZ NSC TEMPO 1512/1518 30016KT

Osservazioni e previsioni meteorologiche di più di 4000 aeroporti (messaggi METAR e TAF).

Le stazioni disponibili sono rappresentate dai dischi gialli e rossi sulla carta.

Puntare il mouse per vedere il nome della stazione.

Clicca sopra per visualizzare le osservazioni e previsioni meteorologiche.

Per cambiare la mappa : fare clic sui pulsanti verdi con una croce nera per ingrandire, il pulsante verde con un trattino per diminuire, o sulla freccia verde per le mappe adiacenti.


METAR-TAF: